Terminal Aerodrome Forecast
Issued by NWS

Home | Current Version | Previous Version | Text Only | Print | Product List | Glossary On
Versions: 1 2 3 4 5 6 7 8 9 10 11 12 13 14 15 16 17 18 19
000
FTUS43 KILX 262000 AAA
TAFDEC
TAF AMD
KDEC 262005Z 2620/2718 35015KT P6SM VCSH SCT018 BKN035
      TEMPO 2620/2623 5SM -SN BR BKN018
     FM262300 34010KT P6SM BKN030
     FM270500 32007KT P6SM SCT030=

USA.gov is the U.S. government's official web portal to all federal, state and local government web resources and services.